createdAt,value
2022-10-23T00:00:24.237Z,0.00
2022-10-23T00:01:24.120Z,0.00
2022-10-23T00:02:24.156Z,0.00
2022-10-23T00:03:24.074Z,0.00
2022-10-23T00:04:24.065Z,0.00
2022-10-23T00:05:24.057Z,0.00
2022-10-23T00:06:24.065Z,0.00
2022-10-23T00:07:24.098Z,0.00
2022-10-23T00:08:24.016Z,0.00
2022-10-23T00:09:24.016Z,0.00
2022-10-23T00:10:24.003Z,0.00
2022-10-23T00:11:24.016Z,0.00
2022-10-23T00:12:23.979Z,0.00
2022-10-23T00:13:23.968Z,0.00
2022-10-23T00:14:23.960Z,0.00
2022-10-23T00:15:23.948Z,0.00
2022-10-23T00:16:23.949Z,0.00
2022-10-23T00:17:23.929Z,0.00
2022-10-23T00:18:23.909Z,0.00
2022-10-23T00:19:23.908Z,0.00
2022-10-23T00:20:23.890Z,0.00
2022-10-23T00:21:23.909Z,0.00
2022-10-23T00:22:23.870Z,0.00
2022-10-23T00:23:23.870Z,0.00
2022-10-23T00:24:23.850Z,0.00
2022-10-23T00:25:23.849Z,0.00
2022-10-23T00:26:23.842Z,0.00
2022-10-23T00:27:23.821Z,0.00
2022-10-23T00:28:23.821Z,0.00
2022-10-23T00:29:23.823Z,0.00
2022-10-23T00:30:23.790Z,0.00
2022-10-23T00:31:23.803Z,0.00
2022-10-23T00:32:23.792Z,0.00
2022-10-23T00:33:23.763Z,0.00
2022-10-23T00:34:23.746Z,0.00
2022-10-23T00:35:23.744Z,0.00
2022-10-23T00:36:23.746Z,0.00
2022-10-23T00:37:23.724Z,0.00
2022-10-23T00:38:23.706Z,0.00
2022-10-23T00:39:23.696Z,0.00
2022-10-23T00:40:23.676Z,0.00
2022-10-23T00:41:23.697Z,0.00
2022-10-23T00:42:23.670Z,0.00
2022-10-23T00:43:23.666Z,0.00
2022-10-23T00:44:23.637Z,0.00
2022-10-23T00:45:23.637Z,0.00
2022-10-23T00:46:23.646Z,0.00
2022-10-23T00:47:23.618Z,0.00
2022-10-23T00:48:23.600Z,0.00
2022-10-23T00:49:23.596Z,0.00
2022-10-23T00:50:23.577Z,0.00
2022-10-23T00:51:23.589Z,0.00
2022-10-23T00:52:23.557Z,0.00
2022-10-23T00:53:23.550Z,0.00
2022-10-23T00:54:24.655Z,0.00
2022-10-23T00:55:23.531Z,0.00
2022-10-23T00:56:23.541Z,0.00
2022-10-23T00:57:23.549Z,0.00
2022-10-23T00:58:23.492Z,0.00
2022-10-23T00:59:23.490Z,0.00
2022-10-23T01:00:23.493Z,0.00
2022-10-23T01:01:23.594Z,0.00
2022-10-23T01:02:23.486Z,0.00
2022-10-23T01:03:23.452Z,0.00
2022-10-23T01:04:23.434Z,0.00
2022-10-23T01:05:23.424Z,0.00
2022-10-23T01:06:23.434Z,0.00
2022-10-23T01:07:23.406Z,0.00
2022-10-23T01:08:23.386Z,0.00
2022-10-23T01:09:23.385Z,0.00
2022-10-23T01:10:23.367Z,0.00
2022-10-23T01:11:23.385Z,0.00
2022-10-23T01:12:23.346Z,0.00
2022-10-23T01:13:23.344Z,0.00
2022-10-23T01:14:23.328Z,0.00
2022-10-23T01:15:23.331Z,0.00
2022-10-23T01:16:23.326Z,0.00
2022-10-23T01:17:23.298Z,0.00
2022-10-23T01:18:23.299Z,0.00
2022-10-23T01:19:23.285Z,0.00
2022-10-23T01:20:23.269Z,0.00
2022-10-23T01:21:23.279Z,0.00
2022-10-23T01:23:23.239Z,0.00
2022-10-23T01:24:23.239Z,0.00
2022-10-23T01:25:23.221Z,0.00
2022-10-23T01:26:23.219Z,0.00
2022-10-23T01:27:23.201Z,0.00
2022-10-23T01:28:23.180Z,0.00
2022-10-23T01:29:23.182Z,0.00
2022-10-23T01:30:23.163Z,0.00
2022-10-23T01:31:23.184Z,0.00
2022-10-23T01:32:23.132Z,0.00
2022-10-23T01:33:23.144Z,0.00
2022-10-23T01:34:23.123Z,0.00
2022-10-23T01:35:23.115Z,0.00
2022-10-23T01:36:23.113Z,0.00
2022-10-23T01:37:23.095Z,0.00
2022-10-23T01:38:23.074Z,0.00
2022-10-23T01:39:23.075Z,0.00
2022-10-23T01:40:23.056Z,0.00
2022-10-23T01:41:23.074Z,0.00
2022-10-23T01:42:23.042Z,0.00
2022-10-23T01:43:23.034Z,0.00
2022-10-23T01:44:23.016Z,0.00
2022-10-23T01:45:23.010Z,0.00
2022-10-23T01:46:23.019Z,0.00
2022-10-23T01:47:22.993Z,0.00
2022-10-23T01:48:22.977Z,0.00
2022-10-23T01:49:22.969Z,0.00
2022-10-23T01:50:22.948Z,0.00
2022-10-23T01:51:22.969Z,0.00
2022-10-23T01:52:22.929Z,0.00
2022-10-23T01:53:22.921Z,0.00
2022-10-23T01:54:22.910Z,0.00
2022-10-23T01:55:22.908Z,0.00
2022-10-23T01:56:22.919Z,0.00
2022-10-23T01:57:22.892Z,0.00
2022-10-23T01:58:22.870Z,0.00
2022-10-23T01:59:22.864Z,0.00
2022-10-23T02:00:22.852Z,0.00
2022-10-23T02:01:22.955Z,0.00
2022-10-23T02:02:22.885Z,0.00
2022-10-23T02:03:22.824Z,0.00
2022-10-23T02:04:22.810Z,0.00
2022-10-23T02:05:22.802Z,0.00
2022-10-23T02:06:22.804Z,0.00
2022-10-23T02:07:22.781Z,0.00
2022-10-23T02:08:22.764Z,0.00
2022-10-23T02:09:22.762Z,0.00
2022-10-23T02:10:22.743Z,0.00
2022-10-23T02:11:22.755Z,0.00
2022-10-23T02:12:22.757Z,0.00
2022-10-23T02:13:22.716Z,0.00
2022-10-23T02:14:22.707Z,0.00
2022-10-23T02:15:22.696Z,0.00
2022-10-23T02:16:22.707Z,0.00
2022-10-23T02:17:22.677Z,0.00
2022-10-23T02:18:22.659Z,0.00
2022-10-23T02:19:22.659Z,0.00
2022-10-23T02:20:22.640Z,0.00
2022-10-23T02:21:22.667Z,0.00
2022-10-23T02:22:22.618Z,0.00
2022-10-23T02:23:22.611Z,0.00
2022-10-23T02:24:22.599Z,0.00
2022-10-23T02:25:22.590Z,0.00
2022-10-23T02:26:22.590Z,0.00
2022-10-23T02:27:22.572Z,0.00
2022-10-23T02:28:22.559Z,0.00
2022-10-23T02:29:22.558Z,0.00
2022-10-23T02:30:22.531Z,0.00
2022-10-23T02:31:22.542Z,0.00
2022-10-23T02:32:22.518Z,0.00
2022-10-23T02:33:22.509Z,0.00
2022-10-23T02:34:22.492Z,0.00
2022-10-23T02:35:22.503Z,0.00
2022-10-23T02:36:22.492Z,0.00
2022-10-23T02:38:22.454Z,0.00
2022-10-23T02:39:22.452Z,0.00
2022-10-23T02:40:22.426Z,0.00
2022-10-23T02:41:22.446Z,0.00
2022-10-23T02:42:22.405Z,0.00
2022-10-23T02:43:22.405Z,0.00
2022-10-23T02:44:22.387Z,0.00
2022-10-23T02:45:22.385Z,0.00
2022-10-23T02:46:22.405Z,0.00
2022-10-23T02:47:22.368Z,0.00
2022-10-23T02:48:22.354Z,0.00
2022-10-23T02:49:22.338Z,0.00
2022-10-23T02:50:22.326Z,0.00
2022-10-23T02:51:22.327Z,0.00
2022-10-23T02:52:22.299Z,0.00
2022-10-23T02:53:22.301Z,0.00
2022-10-23T02:54:22.282Z,0.00
2022-10-23T02:55:22.277Z,0.00
2022-10-23T02:56:22.278Z,0.00
2022-10-23T02:57:22.258Z,0.00
2022-10-23T02:58:22.273Z,0.00
2022-10-23T02:59:22.231Z,0.00
2022-10-23T03:00:22.219Z,0.00
2022-10-23T03:01:22.269Z,0.00
2022-10-23T03:02:22.354Z,0.00
2022-10-23T03:03:22.191Z,0.00
2022-10-23T03:04:22.181Z,0.00
2022-10-23T03:05:22.171Z,0.00
2022-10-23T03:06:22.175Z,0.00
2022-10-23T03:07:22.150Z,0.00
2022-10-23T03:08:22.133Z,0.00
2022-10-23T03:09:22.133Z,0.00
2022-10-23T03:10:22.122Z,0.00
2022-10-23T03:11:22.124Z,0.00
2022-10-23T03:12:22.093Z,0.00
2022-10-23T03:13:22.083Z,0.00
2022-10-23T03:14:22.078Z,0.00
2022-10-23T03:15:22.059Z,0.00
2022-10-23T03:16:22.076Z,0.00
2022-10-23T03:17:22.036Z,0.00
2022-10-23T03:18:22.026Z,0.00
2022-10-23T03:19:22.016Z,0.00
2022-10-23T03:20:22.006Z,0.00
2022-10-23T03:21:22.015Z,0.00
2022-10-23T03:22:21.987Z,0.00
2022-10-23T03:23:21.977Z,0.00
2022-10-23T03:24:21.975Z,0.00
2022-10-23T03:25:21.958Z,0.00
2022-10-23T03:26:21.966Z,0.00
2022-10-23T03:27:21.993Z,0.00
2022-10-23T03:28:21.927Z,0.00
2022-10-23T03:29:21.910Z,0.00
2022-10-23T03:30:21.908Z,0.00
2022-10-23T03:31:21.907Z,0.00
2022-10-23T03:32:21.887Z,0.00
2022-10-23T03:33:21.870Z,0.00
2022-10-23T03:34:21.862Z,0.00
2022-10-23T03:35:21.852Z,0.00
2022-10-23T03:36:21.853Z,0.00
2022-10-23T03:37:21.822Z,0.00
2022-10-23T03:38:21.822Z,0.00
2022-10-23T03:39:21.804Z,0.00
2022-10-23T03:40:21.810Z,0.00
2022-10-23T03:41:21.826Z,0.00
2022-10-23T03:42:21.777Z,0.00
2022-10-23T03:43:21.767Z,0.00
2022-10-23T03:44:21.760Z,0.00
2022-10-23T03:45:21.744Z,0.00
2022-10-23T03:46:21.753Z,0.00
2022-10-23T03:47:21.755Z,0.00
2022-10-23T03:48:21.715Z,0.00
2022-10-23T03:49:21.695Z,0.00
2022-10-23T03:50:21.706Z,0.00
2022-10-23T03:51:21.707Z,0.00
2022-10-23T03:52:21.758Z,0.00
2022-10-23T03:53:21.659Z,0.00
2022-10-23T03:54:21.647Z,0.00
2022-10-23T03:55:21.636Z,0.00
2022-10-23T03:56:21.648Z,0.00
2022-10-23T03:57:21.619Z,0.00
2022-10-23T03:58:21.617Z,0.00
2022-10-23T03:59:21.599Z,0.00
2022-10-23T04:00:21.608Z,0.00
2022-10-23T04:01:21.614Z,0.00
2022-10-23T04:02:21.661Z,0.00
2022-10-23T04:03:21.550Z,0.00
2022-10-23T04:04:21.548Z,0.00
2022-10-23T04:05:21.552Z,0.00
2022-10-23T04:06:21.528Z,0.00
2022-10-23T04:07:21.538Z,0.00
2022-10-23T04:08:21.513Z,0.00
2022-10-23T04:09:21.492Z,0.00
2022-10-23T04:10:21.503Z,0.00
2022-10-23T04:11:21.473Z,0.00
2022-10-23T04:12:21.464Z,0.00
2022-10-23T04:13:21.453Z,0.00
2022-10-23T04:14:21.441Z,0.00
2022-10-23T04:15:21.454Z,0.00
2022-10-23T04:16:21.425Z,0.00
2022-10-23T04:17:21.482Z,0.00
2022-10-23T04:18:21.417Z,0.00
2022-10-23T04:19:21.396Z,0.00
2022-10-23T04:20:21.380Z,0.00
2022-10-23T04:21:21.376Z,0.00
2022-10-23T04:22:24.695Z,0.00
2022-10-23T04:23:22.347Z,0.00
2022-10-23T04:24:21.337Z,0.00
2022-10-23T04:25:21.340Z,0.00
2022-10-23T04:26:21.347Z,0.00
2022-10-23T04:27:21.326Z,0.00
2022-10-23T04:28:21.295Z,0.00
2022-10-23T04:29:21.279Z,0.00
2022-10-23T04:30:21.280Z,0.00
2022-10-23T04:31:21.300Z,0.00
2022-10-23T04:32:21.252Z,0.00
2022-10-23T04:33:21.251Z,0.00
2022-10-23T04:34:21.232Z,0.00
2022-10-23T04:35:21.213Z,0.00
2022-10-23T04:36:21.249Z,0.00
2022-10-23T04:37:21.191Z,0.00
2022-10-23T04:38:21.189Z,0.00
2022-10-23T04:39:21.171Z,0.00
2022-10-23T04:40:21.163Z,0.00
2022-10-23T04:41:21.183Z,0.00
2022-10-23T04:42:21.204Z,0.00
2022-10-23T04:43:21.143Z,0.00
2022-10-23T04:44:21.124Z,0.00
2022-10-23T04:45:21.111Z,0.00
2022-10-23T04:46:21.137Z,0.00
2022-10-23T04:47:21.084Z,0.00
2022-10-23T04:48:23.420Z,0.00
2022-10-23T04:49:21.065Z,0.00
2022-10-23T04:50:21.066Z,0.00
2022-10-23T04:51:21.062Z,0.00
2022-10-23T04:52:21.036Z,0.00
2022-10-23T04:53:21.026Z,0.00
2022-10-23T04:54:21.046Z,0.00
2022-10-23T04:55:21.003Z,0.00
2022-10-23T04:56:21.017Z,0.00
2022-10-23T04:57:20.990Z,0.00
2022-10-23T04:58:20.978Z,0.00
2022-10-23T04:59:20.972Z,0.00
2022-10-23T05:00:20.958Z,0.00
2022-10-23T05:01:21.081Z,0.00
2022-10-23T05:02:20.940Z,0.00
2022-10-23T05:03:20.919Z,0.00
2022-10-23T05:04:20.910Z,0.00
2022-10-23T05:05:20.898Z,0.00
2022-10-23T05:06:20.909Z,0.00
2022-10-23T05:08:20.878Z,0.00
2022-10-23T05:09:20.852Z,0.00
2022-10-23T05:10:20.851Z,0.00
2022-10-23T05:11:20.869Z,0.00
2022-10-23T05:12:20.839Z,0.00
2022-10-23T05:13:20.815Z,0.00
2022-10-23T05:14:22.801Z,0.00
2022-10-23T05:15:20.795Z,0.00
2022-10-23T05:16:20.815Z,0.00
2022-10-23T05:17:20.773Z,0.00
2022-10-23T05:18:20.774Z,0.00
2022-10-23T05:19:23.460Z,0.00
2022-10-23T05:20:20.744Z,0.00
2022-10-23T05:21:20.747Z,0.00
2022-10-23T05:22:20.736Z,0.00
2022-10-23T05:23:20.706Z,0.00
2022-10-23T05:24:20.697Z,0.00
2022-10-23T05:25:20.688Z,0.00
2022-10-23T05:26:20.697Z,0.00
2022-10-23T05:27:20.664Z,0.00
2022-10-23T05:28:20.669Z,0.00
2022-10-23T05:29:20.650Z,0.00
2022-10-23T05:30:20.636Z,0.00
2022-10-23T05:31:20.666Z,0.00
2022-10-23T05:33:20.600Z,0.00
2022-10-23T05:34:20.597Z,0.00
2022-10-23T05:35:20.580Z,0.00
2022-10-23T05:36:20.590Z,0.00
2022-10-23T05:37:20.561Z,0.00
2022-10-23T05:38:20.551Z,0.00
2022-10-23T05:39:20.491Z,1.00
2022-10-23T05:40:20.536Z,0.00
2022-10-23T05:41:20.541Z,0.00
2022-10-23T05:42:20.510Z,0.00
2022-10-23T05:43:21.243Z,0.00
2022-10-23T05:44:20.493Z,0.00
2022-10-23T05:45:20.429Z,2.00
2022-10-23T05:46:20.425Z,1.00
2022-10-23T05:47:20.403Z,2.00
2022-10-23T05:48:34.432Z,3.00
2022-10-23T05:49:21.383Z,3.00
2022-10-23T05:50:20.374Z,1.00
2022-10-23T05:51:20.374Z,2.00
2022-10-23T05:52:20.352Z,6.00
2022-10-23T05:53:20.337Z,1.00
2022-10-23T05:54:20.326Z,1.00
2022-10-23T05:55:20.316Z,2.00
2022-10-23T05:56:20.327Z,2.00
2022-10-23T05:57:20.289Z,5.00
2022-10-23T05:58:20.290Z,8.00
2022-10-23T05:59:22.887Z,5.00
2022-10-23T06:00:20.268Z,6.00
2022-10-23T06:01:20.324Z,8.00
2022-10-23T06:02:20.270Z,11.00
2022-10-23T06:03:20.227Z,10.00
2022-10-23T06:04:20.238Z,8.00
2022-10-23T06:05:20.209Z,12.00
2022-10-23T06:06:20.219Z,11.00
2022-10-23T06:07:20.189Z,15.00
2022-10-23T06:08:20.190Z,17.00
2022-10-23T06:09:20.167Z,18.00
2022-10-23T06:10:20.159Z,21.00
2022-10-23T06:11:20.191Z,26.00
2022-10-23T06:12:20.139Z,24.00
2022-10-23T06:13:20.123Z,24.00
2022-10-23T06:14:20.111Z,26.00
2022-10-23T06:15:20.106Z,28.00
2022-10-23T06:16:20.112Z,31.00
2022-10-23T06:17:20.095Z,33.00
2022-10-23T06:18:20.072Z,32.00
2022-10-23T06:19:20.063Z,35.00
2022-10-23T06:20:20.053Z,40.00
2022-10-23T06:21:20.062Z,39.00
2022-10-23T06:23:20.024Z,45.00
2022-10-23T06:24:20.013Z,49.00
2022-10-23T06:25:19.996Z,51.00
2022-10-23T06:26:20.018Z,56.00
2022-10-23T06:27:19.976Z,68.00
2022-10-23T06:28:20.792Z,67.00
2022-10-23T06:29:19.957Z,67.00
2022-10-23T06:30:19.946Z,68.00
2022-10-23T06:31:19.947Z,71.00
2022-10-23T06:32:19.927Z,68.00
2022-10-23T06:33:19.920Z,74.00
2022-10-23T06:34:19.906Z,80.00
2022-10-23T06:35:19.895Z,78.00
2022-10-23T06:36:19.904Z,76.00
2022-10-23T06:37:19.868Z,80.00
2022-10-23T06:38:19.870Z,85.00
2022-10-23T06:39:19.851Z,89.00
2022-10-23T06:40:19.842Z,87.00
2022-10-23T06:41:19.846Z,87.00
2022-10-23T06:42:19.821Z,91.00
2022-10-23T06:43:19.801Z,100.00
2022-10-23T06:44:19.802Z,101.00
2022-10-23T06:45:19.783Z,106.00
2022-10-23T06:46:19.801Z,114.00
2022-10-23T06:47:19.765Z,120.00
2022-10-23T06:48:19.762Z,120.00
2022-10-23T06:49:19.742Z,126.00
2022-10-23T06:50:19.741Z,124.00
2022-10-23T06:51:19.737Z,126.00
2022-10-23T06:52:41.612Z,134.00
2022-10-23T06:53:20.695Z,141.00
2022-10-23T06:54:19.695Z,139.00
2022-10-23T06:55:19.685Z,131.00
2022-10-23T06:56:19.695Z,140.00
2022-10-23T06:57:19.654Z,151.00
2022-10-23T06:58:19.656Z,146.00
2022-10-23T06:59:19.646Z,158.00
2022-10-23T07:00:19.629Z,164.00
2022-10-23T07:01:19.814Z,161.00
2022-10-23T07:02:19.607Z,175.00
2022-10-23T07:03:19.596Z,170.00
2022-10-23T07:04:19.596Z,181.00
2022-10-23T07:05:19.568Z,178.00
2022-10-23T07:06:19.578Z,182.00
2022-10-23T07:07:19.550Z,194.00
2022-10-23T07:08:19.547Z,202.00
2022-10-23T07:09:19.541Z,209.00
2022-10-23T07:10:19.529Z,218.00
2022-10-23T07:11:19.522Z,234.00
2022-10-23T07:12:19.519Z,243.00
2022-10-23T07:13:19.489Z,248.00
2022-10-23T07:14:19.480Z,252.00
2022-10-23T07:15:19.470Z,260.00
2022-10-23T07:16:19.481Z,262.00
2022-10-23T07:17:19.442Z,271.00
2022-10-23T07:18:19.444Z,267.00
2022-10-23T07:19:19.422Z,274.00
2022-10-23T07:20:19.422Z,282.00
2022-10-23T07:21:19.432Z,280.00
2022-10-23T07:22:19.393Z,264.00
2022-10-23T07:23:19.387Z,275.00
2022-10-23T07:24:19.381Z,267.00
2022-10-23T07:25:19.364Z,266.00
2022-10-23T07:26:19.373Z,276.00
2022-10-23T07:27:19.346Z,285.00
2022-10-23T07:28:19.337Z,270.00
2022-10-23T07:29:19.315Z,289.00
2022-10-23T07:30:19.324Z,295.00
2022-10-23T07:31:21.993Z,314.00
2022-10-23T07:32:19.295Z,323.00
2022-10-23T07:33:19.286Z,295.00
2022-10-23T07:34:19.267Z,314.00
2022-10-23T07:35:19.266Z,333.00
2022-10-23T07:36:19.258Z,291.00
2022-10-23T07:37:19.237Z,321.00
2022-10-23T07:38:19.218Z,306.00
2022-10-23T07:39:19.219Z,278.00
2022-10-23T07:40:19.206Z,314.00
2022-10-23T07:41:19.218Z,277.00
2022-10-23T07:42:19.186Z,349.00
2022-10-23T07:43:19.211Z,337.00
2022-10-23T07:44:21.018Z,304.00
2022-10-23T07:45:19.156Z,365.00
2022-10-23T07:46:19.161Z,343.00
2022-10-23T07:47:19.161Z,309.00
2022-10-23T07:48:19.121Z,299.00
2022-10-23T07:49:19.111Z,289.00
2022-10-23T07:50:19.095Z,293.00
2022-10-23T07:51:19.091Z,238.00
2022-10-23T07:52:19.095Z,349.00
2022-10-23T07:53:19.062Z,469.00
2022-10-23T07:54:19.061Z,388.00
2022-10-23T07:55:19.053Z,376.00
2022-10-23T07:56:19.032Z,380.00
2022-10-23T07:57:19.043Z,442.00
2022-10-23T07:58:19.015Z,550.00
2022-10-23T07:59:19.014Z,427.00
2022-10-23T08:00:19.046Z,225.00
2022-10-23T08:01:19.085Z,674.00
2022-10-23T08:02:19.020Z,244.00
2022-10-23T08:03:18.965Z,587.00
2022-10-23T08:04:18.946Z,536.00
2022-10-23T08:05:18.947Z,283.00
2022-10-23T08:06:18.926Z,447.00
2022-10-23T08:07:18.947Z,319.00
2022-10-23T08:08:18.907Z,346.00
2022-10-23T08:09:18.908Z,291.00
2022-10-23T08:10:18.887Z,301.00
2022-10-23T08:11:18.879Z,278.00
2022-10-23T08:12:18.893Z,417.00
2022-10-23T08:13:18.859Z,343.00
2022-10-23T08:14:18.847Z,336.00
2022-10-23T08:15:18.840Z,351.00
2022-10-23T08:16:18.831Z,375.00
2022-10-23T08:17:18.830Z,401.00
2022-10-23T08:18:18.810Z,406.00
2022-10-23T08:19:18.792Z,433.00
2022-10-23T08:20:18.783Z,433.00
2022-10-23T08:21:18.780Z,446.00
2022-10-23T08:22:18.774Z,495.00
2022-10-23T08:23:18.763Z,527.00
2022-10-23T08:24:18.741Z,541.00
2022-10-23T08:25:21.881Z,557.00
2022-10-23T08:26:19.713Z,558.00
2022-10-23T08:27:18.743Z,574.00
2022-10-23T08:28:18.694Z,577.00
2022-10-23T08:29:18.695Z,573.00
2022-10-23T08:30:18.682Z,562.00
2022-10-23T08:31:18.665Z,559.00
2022-10-23T08:32:18.680Z,560.00
2022-10-23T08:33:18.654Z,559.00
2022-10-23T08:34:18.635Z,608.00
2022-10-23T08:35:18.635Z,610.00
2022-10-23T08:36:18.616Z,154.00
2022-10-23T08:37:18.629Z,36.00
2022-10-23T08:38:18.593Z,73.00
2022-10-23T08:39:18.594Z,103.00
2022-10-23T08:40:18.578Z,45.00
2022-10-23T08:41:18.568Z,83.00
2022-10-23T08:42:18.609Z,73.00
2022-10-23T08:43:18.570Z,79.00
2022-10-23T08:44:18.543Z,78.00
2022-10-23T08:45:18.538Z,82.00
2022-10-23T08:46:18.510Z,83.00
2022-10-23T08:47:18.520Z,77.00
2022-10-23T08:48:18.493Z,82.00
2022-10-23T08:49:18.481Z,77.00
2022-10-23T08:50:18.594Z,82.00
2022-10-23T08:51:18.462Z,82.00
2022-10-23T08:52:18.464Z,85.00
2022-10-23T08:53:18.439Z,82.00
2022-10-23T08:54:18.447Z,84.00
2022-10-23T08:55:18.419Z,85.00
2022-10-23T08:56:18.401Z,86.00
2022-10-23T08:57:18.412Z,103.00
2022-10-23T08:58:18.384Z,93.00
2022-10-23T08:59:18.375Z,99.00
2022-10-23T09:00:18.354Z,94.00
2022-10-23T09:01:18.485Z,103.00
2022-10-23T09:02:18.435Z,83.00
2022-10-23T09:03:18.332Z,95.00
2022-10-23T09:04:18.315Z,105.00
2022-10-23T09:05:18.306Z,118.00
2022-10-23T09:06:18.296Z,101.00
2022-10-23T09:07:18.304Z,110.00
2022-10-23T09:08:18.267Z,105.00
2022-10-23T09:09:18.267Z,118.00
2022-10-23T09:10:18.258Z,110.00
2022-10-23T09:11:18.249Z,118.00
2022-10-23T09:12:18.249Z,111.00
2022-10-23T09:13:18.228Z,117.00
2022-10-23T09:14:18.212Z,126.00
2022-10-23T09:15:18.200Z,149.00
2022-10-23T09:16:18.190Z,123.00
2022-10-23T09:17:18.218Z,155.00
2022-10-23T09:18:18.166Z,143.00
2022-10-23T09:19:18.166Z,138.00
2022-10-23T09:20:18.163Z,117.00
2022-10-23T09:21:18.157Z,109.00
2022-10-23T09:22:18.149Z,105.00
2022-10-23T09:23:18.115Z,93.00
2022-10-23T09:24:18.112Z,76.00
2022-10-23T09:25:18.139Z,139.00
2022-10-23T09:26:18.082Z,103.00
2022-10-23T09:27:18.097Z,100.00
2022-10-23T09:28:18.065Z,110.00
2022-10-23T09:29:18.065Z,193.00
2022-10-23T09:30:18.052Z,121.00
2022-10-23T09:31:18.037Z,103.00
2022-10-23T09:32:18.035Z,124.00
2022-10-23T09:33:18.014Z,136.00
2022-10-23T09:34:17.995Z,139.00
2022-10-23T09:35:17.997Z,136.00
2022-10-23T09:36:17.977Z,111.00
2022-10-23T09:37:18.422Z,118.00
2022-10-23T09:38:17.956Z,106.00
2022-10-23T09:39:17.948Z,94.00
2022-10-23T09:40:17.933Z,91.00
2022-10-23T09:41:17.929Z,87.00
2022-10-23T09:42:17.938Z,87.00
2022-10-23T09:43:17.913Z,88.00
2022-10-23T09:44:17.890Z,83.00
2022-10-23T09:45:17.883Z,74.00
2022-10-23T09:46:17.871Z,77.00
2022-10-23T09:47:17.882Z,149.00
2022-10-23T09:48:17.843Z,284.00
2022-10-23T09:49:17.854Z,115.00
2022-10-23T09:50:17.870Z,102.00
2022-10-23T09:51:17.827Z,161.00
2022-10-23T09:52:17.824Z,124.00
2022-10-23T09:53:17.799Z,103.00
2022-10-23T09:54:17.783Z,98.00
2022-10-23T09:55:17.782Z,87.00
2022-10-23T09:56:21.247Z,91.00
2022-10-23T09:57:18.787Z,86.00
2022-10-23T09:58:17.744Z,85.00
2022-10-23T09:59:17.735Z,94.00
2022-10-23T10:00:17.784Z,119.00
2022-10-23T10:01:17.797Z,93.00
2022-10-23T10:02:17.872Z,81.00
2022-10-23T10:03:17.695Z,98.00
2022-10-23T10:04:17.676Z,146.00
2022-10-23T10:05:17.675Z,111.00
2022-10-23T10:06:17.658Z,198.00
2022-10-23T10:07:17.668Z,185.00
2022-10-23T10:08:17.638Z,133.00
2022-10-23T10:09:17.629Z,108.00
2022-10-23T10:10:17.690Z,156.00
2022-10-23T10:11:17.609Z,221.00
2022-10-23T10:12:17.609Z,121.00
2022-10-23T10:13:17.590Z,138.00
2022-10-23T10:14:17.572Z,172.00
2022-10-23T10:15:17.574Z,129.00
2022-10-23T10:16:17.552Z,147.00
2022-10-23T10:17:17.564Z,95.00
2022-10-23T10:18:17.532Z,210.00
2022-10-23T10:19:17.529Z,158.00
2022-10-23T10:20:17.511Z,93.00
2022-10-23T10:21:17.504Z,171.00
2022-10-23T10:22:17.505Z,131.00
2022-10-23T10:23:17.483Z,100.00
2022-10-23T10:24:17.485Z,145.00
2022-10-23T10:25:17.478Z,125.00
2022-10-23T10:26:17.490Z,435.00
2022-10-23T10:27:17.466Z,113.00
2022-10-23T10:28:17.432Z,203.00
2022-10-23T10:29:17.425Z,307.00
2022-10-23T10:30:17.406Z,132.00
2022-10-23T10:31:17.405Z,117.00
2022-10-23T10:32:17.407Z,160.00
2022-10-23T10:33:17.384Z,237.00
2022-10-23T10:34:17.367Z,856.00
2022-10-23T10:35:17.365Z,233.00
2022-10-23T10:36:17.374Z,189.00
2022-10-23T10:37:17.357Z,498.00
2022-10-23T10:38:17.327Z,155.00
2022-10-23T10:39:17.319Z,315.00
2022-10-23T10:40:17.341Z,179.00
2022-10-23T10:41:17.298Z,305.00
2022-10-23T10:42:17.299Z,105.00
2022-10-23T10:43:17.271Z,167.00
2022-10-23T10:44:17.261Z,156.00
2022-10-23T10:45:17.252Z,248.00
2022-10-23T10:46:17.242Z,135.00
2022-10-23T10:47:20.171Z,96.00
2022-10-23T10:48:17.221Z,235.00
2022-10-23T10:49:17.212Z,98.00
2022-10-23T10:50:17.196Z,156.00
2022-10-23T10:51:17.184Z,177.00
2022-10-23T10:52:17.203Z,109.00
2022-10-23T10:53:17.175Z,138.00
2022-10-23T10:54:17.154Z,263.00
2022-10-23T10:55:17.144Z,329.00
2022-10-23T10:56:17.126Z,154.00
2022-10-23T10:57:17.143Z,119.00
2022-10-23T10:58:17.108Z,331.00
2022-10-23T10:59:17.106Z,190.00
2022-10-23T11:00:17.087Z,220.00
2022-10-23T11:01:17.178Z,131.00
2022-10-23T11:02:17.154Z,206.00
2022-10-23T11:03:17.059Z,118.00
2022-10-23T11:04:17.047Z,98.00
2022-10-23T11:05:17.037Z,86.00
2022-10-23T11:06:17.021Z,111.00
2022-10-23T11:07:17.037Z,166.00
2022-10-23T11:08:17.008Z,145.00
2022-10-23T11:09:20.686Z,95.00
2022-10-23T11:10:16.981Z,198.00
2022-10-23T11:11:16.971Z,132.00
2022-10-23T11:12:16.973Z,126.00
2022-10-23T11:13:16.952Z,115.00
2022-10-23T11:14:16.933Z,109.00
2022-10-23T11:15:16.931Z,106.00
2022-10-23T11:16:16.915Z,102.00
2022-10-23T11:17:16.934Z,92.00
2022-10-23T11:18:16.906Z,88.00
2022-10-23T11:19:16.935Z,88.00
2022-10-23T11:20:16.884Z,79.00
2022-10-23T11:21:16.865Z,77.00
2022-10-23T11:22:16.869Z,73.00
2022-10-23T11:23:16.846Z,73.00
2022-10-23T11:24:16.827Z,66.00
2022-10-23T11:25:16.817Z,64.00
2022-10-23T11:26:19.776Z,60.00
2022-10-23T11:27:16.834Z,60.00
2022-10-23T11:28:16.779Z,60.00
2022-10-23T11:29:16.777Z,62.00
2022-10-23T11:30:16.759Z,63.00
2022-10-23T11:31:16.757Z,57.00
2022-10-23T11:32:16.756Z,57.00
2022-10-23T11:33:16.740Z,52.00
2022-10-23T11:34:16.757Z,54.00
2022-10-23T11:35:16.710Z,65.00
2022-10-23T11:36:16.691Z,69.00
2022-10-23T11:37:16.709Z,66.00
2022-10-23T11:38:16.672Z,63.00
2022-10-23T11:39:16.671Z,62.00
2022-10-23T11:40:16.655Z,64.00
2022-10-23T11:41:18.908Z,63.00
2022-10-23T11:42:16.653Z,62.00
2022-10-23T11:43:16.624Z,62.00
2022-10-23T11:44:16.611Z,62.00
2022-10-23T11:45:16.605Z,63.00
2022-10-23T11:46:16.604Z,62.00
2022-10-23T11:47:16.602Z,63.00
2022-10-23T11:48:16.573Z,61.00
2022-10-23T11:49:16.559Z,67.00
2022-10-23T11:50:16.556Z,60.00
2022-10-23T11:51:16.536Z,59.00
2022-10-23T11:52:16.548Z,61.00
2022-10-23T11:53:17.038Z,61.00
2022-10-23T11:54:16.508Z,58.00
2022-10-23T11:55:16.489Z,57.00
2022-10-23T11:56:16.501Z,57.00
2022-10-23T11:57:16.491Z,52.00
2022-10-23T11:58:16.467Z,53.00
2022-10-23T11:59:16.450Z,56.00
2022-10-23T12:00:16.447Z,58.00
2022-10-23T12:01:16.507Z,60.00
2022-10-23T12:02:16.484Z,67.00
2022-10-23T12:03:16.411Z,53.00
2022-10-23T12:04:16.402Z,50.00
2022-10-23T12:05:16.391Z,42.00
2022-10-23T12:06:16.382Z,46.00
2022-10-23T12:07:16.381Z,50.00
2022-10-23T12:08:16.361Z,294.00
2022-10-23T12:09:16.343Z,315.00
2022-10-23T12:10:16.334Z,380.00
2022-10-23T12:11:16.315Z,165.00
2022-10-23T12:12:16.334Z,163.00
2022-10-23T12:13:16.314Z,120.00
2022-10-23T12:14:16.299Z,107.00
2022-10-23T12:15:16.284Z,112.00
2022-10-23T12:16:16.277Z,106.00
2022-10-23T12:17:16.275Z,105.00
2022-10-23T12:18:16.258Z,111.00
2022-10-23T12:19:16.236Z,124.00
2022-10-23T12:20:16.227Z,129.00
2022-10-23T12:21:16.217Z,129.00
2022-10-23T12:22:16.234Z,134.00
2022-10-23T12:23:16.197Z,139.00
2022-10-23T12:24:16.188Z,140.00
2022-10-23T12:25:16.169Z,140.00
2022-10-23T12:26:16.161Z,136.00
2022-10-23T12:27:16.167Z,137.00
2022-10-23T12:28:16.142Z,144.00
2022-10-23T12:29:16.121Z,145.00
2022-10-23T12:30:16.131Z,150.00
2022-10-23T12:31:16.102Z,152.00
2022-10-23T12:32:16.129Z,144.00
2022-10-23T12:33:16.083Z,132.00
2022-10-23T12:34:16.075Z,121.00
2022-10-23T12:35:16.064Z,112.00
2022-10-23T12:36:16.054Z,107.00
2022-10-23T12:37:16.063Z,111.00
2022-10-23T12:38:16.034Z,115.00
2022-10-23T12:40:16.013Z,133.00
2022-10-23T12:41:16.005Z,149.00
2022-10-23T12:42:16.015Z,164.00
2022-10-23T12:43:15.976Z,170.00
2022-10-23T12:44:15.969Z,171.00
2022-10-23T12:45:15.947Z,159.00
2022-10-23T12:46:17.722Z,142.00
2022-10-23T12:47:15.949Z,129.00
2022-10-23T12:48:15.926Z,118.00
2022-10-23T12:49:15.911Z,125.00
2022-10-23T12:50:15.907Z,132.00
2022-10-23T12:51:15.889Z,138.00
2022-10-23T12:52:15.935Z,134.00
2022-10-23T12:53:15.868Z,126.00
2022-10-23T12:54:15.871Z,115.00
2022-10-23T12:55:15.849Z,90.00
2022-10-23T12:56:15.841Z,73.00
2022-10-23T12:57:15.842Z,59.00
2022-10-23T12:58:15.820Z,54.00
2022-10-23T12:59:15.801Z,45.00
2022-10-23T13:00:15.811Z,41.00
2022-10-23T13:01:15.927Z,41.00